sensor_id;sensor_type;location;lat;lon;timestamp;P1;durP1;ratioP1;P2;durP2;ratioP2
31974;SDS011;18500;43.618;1.474;2023-04-24T08:37:49;480.75;;;448.20;;
31974;SDS011;18500;43.618;1.474;2023-04-24T08:40:15;719.22;;;667.03;;
31974;SDS011;18500;43.618;1.474;2023-04-24T08:42:42;404.80;;;377.83;;
31974;SDS011;18500;43.618;1.474;2023-04-24T08:45:09;453.45;;;424.50;;
31974;SDS011;18500;43.618;1.474;2023-04-24T08:47:36;852.58;;;785.53;;
31974;SDS011;18500;43.618;1.474;2023-04-24T08:50:03;670.22;;;620.92;;
31974;SDS011;18500;43.618;1.474;2023-04-24T08:52:32;868.88;;;795.90;;
31974;SDS011;18500;43.618;1.474;2023-04-24T08:54:58;983.17;;;899.00;;
31974;SDS011;18500;43.618;1.474;2023-04-24T08:57:26;1018.13;;;924.22;;
31974;SDS011;18500;43.618;1.474;2023-04-24T08:59:52;1105.88;;;993.90;;
31974;SDS011;18500;43.618;1.474;2023-04-24T09:02:19;932.95;;;851.85;;
31974;SDS011;18500;43.618;1.474;2023-04-24T09:04:46;959.83;;;875.65;;
31974;SDS011;18500;43.618;1.474;2023-04-24T09:07:12;1054.68;;;960.10;;
31974;SDS011;18500;43.618;1.474;2023-04-24T09:09:41;1048.35;;;955.03;;
31974;SDS011;18500;43.618;1.474;2023-04-24T09:12:07;1001.83;;;911.03;;
31974;SDS011;18500;43.618;1.474;2023-04-24T09:14:35;1042.22;;;952.75;;
31974;SDS011;18500;43.618;1.474;2023-04-24T09:17:04;975.00;;;893.83;;
31974;SDS011;18500;43.618;1.474;2023-04-24T09:19:31;1055.65;;;961.78;;
31974;SDS011;18500;43.618;1.474;2023-04-24T09:21:57;965.35;;;883.80;;
31974;SDS011;18500;43.618;1.474;2023-04-24T09:24:22;1026.65;;;932.58;;
31974;SDS011;18500;43.618;1.474;2023-04-24T09:26:48;1017.10;;;922.17;;
31974;SDS011;18500;43.618;1.474;2023-04-24T09:29:22;1100.72;;;984.05;;
31974;SDS011;18500;43.618;1.474;2023-04-24T09:31:47;1284.80;;;999.90;;
31974;SDS011;18500;43.618;1.474;2023-04-24T09:34:13;1150.45;;;999.90;;
31974;SDS011;18500;43.618;1.474;2023-04-24T09:36:42;1282.20;;;999.90;;
31974;SDS011;18500;43.618;1.474;2023-04-24T09:39:09;1105.35;;;992.92;;
31974;SDS011;18500;43.618;1.474;2023-04-24T09:41:47;948.70;;;860.40;;
31974;SDS011;18500;43.618;1.474;2023-04-24T09:44:23;1088.68;;;984.88;;
31974;SDS011;18500;43.618;1.474;2023-04-24T09:46:50;1052.72;;;955.85;;
31974;SDS011;18500;43.618;1.474;2023-04-24T09:49:31;1010.72;;;906.00;;
31974;SDS011;18500;43.618;1.474;2023-04-24T09:52:07;865.67;;;796.00;;
31974;SDS011;18500;43.618;1.474;2023-04-24T09:54:34;857.90;;;787.53;;
31974;SDS011;18500;43.618;1.474;2023-04-24T09:57:01;821.88;;;751.45;;
31974;SDS011;18500;43.618;1.474;2023-04-24T09:59:28;836.60;;;777.60;;
31974;SDS011;18500;43.618;1.474;2023-04-24T10:01:54;692.97;;;638.45;;
31974;SDS011;18500;43.618;1.474;2023-04-24T10:04:23;790.10;;;732.60;;
31974;SDS011;18500;43.618;1.474;2023-04-24T10:06:52;691.87;;;638.57;;
31974;SDS011;18500;43.618;1.474;2023-04-24T10:09:19;838.40;;;770.03;;
31974;SDS011;18500;43.618;1.474;2023-04-24T10:11:47;743.25;;;691.03;;
31974;SDS011;18500;43.618;1.474;2023-04-24T10:14:15;737.47;;;678.22;;
31974;SDS011;18500;43.618;1.474;2023-04-24T10:16:42;871.33;;;797.78;;
31974;SDS011;18500;43.618;1.474;2023-04-24T10:19:09;621.67;;;578.75;;
31974;SDS011;18500;43.618;1.474;2023-04-24T10:21:36;677.28;;;629.08;;
31974;SDS011;18500;43.618;1.474;2023-04-24T10:24:08;746.78;;;692.38;;
31974;SDS011;18500;43.618;1.474;2023-04-24T10:26:35;871.40;;;801.38;;
31974;SDS011;18500;43.618;1.474;2023-04-24T10:29:02;750.65;;;691.95;;
31974;SDS011;18500;43.618;1.474;2023-04-24T10:31:31;656.63;;;606.55;;
31974;SDS011;18500;43.618;1.474;2023-04-24T10:33:58;432.50;;;406.27;;
31974;SDS011;18500;43.618;1.474;2023-04-24T10:36:24;936.78;;;858.55;;
31974;SDS011;18500;43.618;1.474;2023-04-24T10:38:53;989.42;;;890.15;;
31974;SDS011;18500;43.618;1.474;2023-04-24T10:41:20;500.00;;;465.42;;
31974;SDS011;18500;43.618;1.474;2023-04-24T10:43:48;625.63;;;576.78;;
31974;SDS011;18500;43.618;1.474;2023-04-24T10:46:29;794.38;;;727.03;;
31974;SDS011;18500;43.618;1.474;2023-04-24T10:48:55;596.13;;;552.00;;
31974;SDS011;18500;43.618;1.474;2023-04-24T10:51:23;1050.93;;;946.65;;
31974;SDS011;18500;43.618;1.474;2023-04-24T10:53:50;1155.78;;;999.90;;
31974;SDS011;18500;43.618;1.474;2023-04-24T10:56:16;1055.38;;;953.50;;
31974;SDS011;18500;43.618;1.474;2023-04-24T10:58:43;738.38;;;678.15;;
31974;SDS011;18500;43.618;1.474;2023-04-24T11:01:23;773.87;;;707.00;;
31974;SDS011;18500;43.618;1.474;2023-04-24T11:03:54;795.85;;;734.85;;
31974;SDS011;18500;43.618;1.474;2023-04-24T11:06:30;788.88;;;720.92;;
31974;SDS011;18500;43.618;1.474;2023-04-24T11:09:04;760.53;;;699.20;;
31974;SDS011;18500;43.618;1.474;2023-04-24T11:11:37;652.95;;;600.88;;
31974;SDS011;18500;43.618;1.474;2023-04-24T11:14:06;629.83;;;579.73;;
31974;SDS011;18500;43.618;1.474;2023-04-24T11:26:56;741.40;;;679.22;;
31974;SDS011;18500;43.618;1.474;2023-04-24T11:29:38;858.90;;;786.70;;
31974;SDS011;18500;43.618;1.474;2023-04-24T11:32:18;768.28;;;708.42;;
31974;SDS011;18500;43.618;1.474;2023-04-24T11:34:47;738.53;;;684.45;;
31974;SDS011;18500;43.618;1.474;2023-04-24T11:37:14;621.67;;;580.88;;
31974;SDS011;18500;43.618;1.474;2023-04-24T11:39:40;658.50;;;614.88;;
31974;SDS011;18500;43.618;1.474;2023-04-24T11:42:06;539.40;;;503.15;;
31974;SDS011;18500;43.618;1.474;2023-04-24T11:44:33;652.28;;;604.22;;
31974;SDS011;18500;43.618;1.474;2023-04-24T11:47:02;593.38;;;553.45;;
31974;SDS011;18500;43.618;1.474;2023-04-24T11:49:29;973.40;;;883.72;;
31974;SDS011;18500;43.618;1.474;2023-04-24T11:51:55;716.03;;;659.80;;
31974;SDS011;18500;43.618;1.474;2023-04-24T11:54:21;667.63;;;616.03;;
31974;SDS011;18500;43.618;1.474;2023-04-24T11:56:47;802.55;;;729.38;;
31974;SDS011;18500;43.618;1.474;2023-04-24T11:59:14;906.33;;;827.35;;
31974;SDS011;18500;43.618;1.474;2023-04-24T12:01:46;822.22;;;745.03;;
31974;SDS011;18500;43.618;1.474;2023-04-24T12:04:16;731.13;;;668.60;;
31974;SDS011;18500;43.618;1.474;2023-04-24T12:10:03;983.10;;;889.47;;
31974;SDS011;18500;43.618;1.474;2023-04-24T12:12:24;893.08;;;813.22;;
31974;SDS011;18500;43.618;1.474;2023-04-24T12:14:55;936.22;;;851.42;;
31974;SDS011;18500;43.618;1.474;2023-04-24T12:17:26;1063.25;;;959.85;;
31974;SDS011;18500;43.618;1.474;2023-04-24T12:19:52;971.67;;;873.50;;
31974;SDS011;18500;43.618;1.474;2023-04-24T12:22:21;977.92;;;880.85;;
31974;SDS011;18500;43.618;1.474;2023-04-24T12:25:03;958.20;;;858.22;;
31974;SDS011;18500;43.618;1.474;2023-04-24T12:27:33;960.05;;;862.90;;
31974;SDS011;18500;43.618;1.474;2023-04-24T12:29:59;940.67;;;845.65;;
31974;SDS011;18500;43.618;1.474;2023-04-24T12:32:27;963.63;;;865.85;;
31974;SDS011;18500;43.618;1.474;2023-04-24T12:34:53;820.20;;;740.08;;
31974;SDS011;18500;43.618;1.474;2023-04-24T12:37:20;935.63;;;839.08;;
31974;SDS011;18500;43.618;1.474;2023-04-24T12:40:00;1015.85;;;910.15;;
31974;SDS011;18500;43.618;1.474;2023-04-24T12:42:28;1089.75;;;978.95;;
31974;SDS011;18500;43.618;1.474;2023-04-24T12:44:59;1000.47;;;895.47;;
31974;SDS011;18500;43.618;1.474;2023-04-24T12:47:30;1345.50;;;999.90;;
31974;SDS011;18500;43.618;1.474;2023-04-24T12:49:56;1041.97;;;938.20;;
31974;SDS011;18500;43.618;1.474;2023-04-24T12:52:22;1007.45;;;900.47;;
31974;SDS011;18500;43.618;1.474;2023-04-24T12:54:54;1191.07;;;999.90;;
31974;SDS011;18500;43.618;1.474;2023-04-24T12:57:25;954.58;;;872.35;;
31974;SDS011;18500;43.618;1.474;2023-04-24T12:59:56;1022.58;;;933.17;;
31974;SDS011;18500;43.618;1.474;2023-04-24T13:02:23;892.35;;;816.85;;
31974;SDS011;18500;43.618;1.474;2023-04-24T13:04:52;1095.18;;;986.70;;
31974;SDS011;18500;43.618;1.474;2023-04-24T13:07:19;1408.00;;;999.90;;
31974;SDS011;18500;43.618;1.474;2023-04-24T13:09:45;1032.85;;;935.30;;
31974;SDS011;18500;43.618;1.474;2023-04-24T13:12:12;950.90;;;868.17;;
31974;SDS011;18500;43.618;1.474;2023-04-24T13:14:38;943.58;;;858.13;;
31974;SDS011;18500;43.618;1.474;2023-04-24T13:17:04;1236.78;;;999.90;;
31974;SDS011;18500;43.618;1.474;2023-04-24T13:19:29;1082.05;;;968.17;;
31974;SDS011;18500;43.618;1.474;2023-04-24T13:22:04;1893.15;;;999.90;;
31974;SDS011;18500;43.618;1.474;2023-04-24T13:24:30;1450.18;;;999.90;;
31974;SDS011;18500;43.618;1.474;2023-04-24T13:26:57;1734.80;;;999.90;;
31974;SDS011;18500;43.618;1.474;2023-04-24T13:29:23;1283.95;;;999.90;;
31974;SDS011;18500;43.618;1.474;2023-04-24T13:31:52;1566.10;;;999.90;;
31974;SDS011;18500;43.618;1.474;2023-04-24T13:34:24;1502.45;;;999.90;;
31974;SDS011;18500;43.618;1.474;2023-04-24T13:36:51;1468.85;;;999.90;;
31974;SDS011;18500;43.618;1.474;2023-04-24T13:39:18;1346.72;;;999.90;;
31974;SDS011;18500;43.618;1.474;2023-04-24T13:41:44;1614.28;;;999.90;;
31974;SDS011;18500;43.618;1.474;2023-04-24T13:44:12;1320.10;;;999.90;;
31974;SDS011;18500;43.618;1.474;2023-04-24T13:46:38;1271.63;;;999.90;;
31974;SDS011;18500;43.618;1.474;2023-04-24T13:49:04;1640.68;;;999.90;;
31974;SDS011;18500;43.618;1.474;2023-04-24T13:51:30;1489.82;;;999.90;;
31974;SDS011;18500;43.618;1.474;2023-04-24T13:53:55;1650.53;;;999.90;;
31974;SDS011;18500;43.618;1.474;2023-04-24T13:56:21;1656.43;;;999.90;;
31974;SDS011;18500;43.618;1.474;2023-04-24T13:58:47;1652.20;;;999.90;;
31974;SDS011;18500;43.618;1.474;2023-04-24T14:01:13;1594.03;;;999.90;;
31974;SDS011;18500;43.618;1.474;2023-04-24T14:03:40;1580.32;;;999.90;;
31974;SDS011;18500;43.618;1.474;2023-04-24T14:06:06;1565.43;;;999.90;;
31974;SDS011;18500;43.618;1.474;2023-04-24T14:08:32;1454.80;;;999.90;;
31974;SDS011;18500;43.618;1.474;2023-04-24T14:10:58;1467.38;;;999.90;;
31974;SDS011;18500;43.618;1.474;2023-04-24T14:13:23;1334.88;;;999.90;;
31974;SDS011;18500;43.618;1.474;2023-04-24T14:15:49;1463.57;;;999.90;;
31974;SDS011;18500;43.618;1.474;2023-04-24T14:18:17;1565.93;;;999.90;;
31974;SDS011;18500;43.618;1.474;2023-04-24T14:20:43;1455.53;;;999.90;;
31974;SDS011;18500;43.618;1.474;2023-04-24T14:23:09;1508.10;;;999.90;;
31974;SDS011;18500;43.618;1.474;2023-04-24T14:25:35;1483.00;;;999.90;;
31974;SDS011;18500;43.618;1.474;2023-04-24T14:28:00;1567.30;;;999.90;;
31974;SDS011;18500;43.618;1.474;2023-04-24T14:30:26;1511.50;;;999.90;;
31974;SDS011;18500;43.618;1.474;2023-04-24T14:32:51;1662.18;;;999.90;;
31974;SDS011;18500;43.618;1.474;2023-04-24T14:35:17;1461.90;;;999.90;;
31974;SDS011;18500;43.618;1.474;2023-04-24T14:37:43;1603.00;;;999.90;;
31974;SDS011;18500;43.618;1.474;2023-04-24T14:40:09;1487.20;;;999.90;;
31974;SDS011;18500;43.618;1.474;2023-04-24T14:42:35;1536.28;;;999.90;;
31974;SDS011;18500;43.618;1.474;2023-04-24T14:45:01;1103.85;;;990.75;;
31974;SDS011;18500;43.618;1.474;2023-04-24T14:47:26;1522.43;;;999.90;;
31974;SDS011;18500;43.618;1.474;2023-04-24T14:49:52;1425.28;;;999.90;;
31974;SDS011;18500;43.618;1.474;2023-04-24T14:52:18;1507.95;;;999.90;;
31974;SDS011;18500;43.618;1.474;2023-04-24T14:54:44;1517.78;;;999.90;;
31974;SDS011;18500;43.618;1.474;2023-04-24T14:57:10;1436.63;;;999.90;;
31974;SDS011;18500;43.618;1.474;2023-04-24T14:59:35;1533.38;;;999.90;;
31974;SDS011;18500;43.618;1.474;2023-04-24T15:02:01;1517.78;;;999.90;;
31974;SDS011;18500;43.618;1.474;2023-04-24T15:04:27;1349.57;;;999.90;;
31974;SDS011;18500;43.618;1.474;2023-04-24T15:06:54;1111.05;;;995.35;;
31974;SDS011;18500;43.618;1.474;2023-04-24T15:09:20;1488.38;;;999.90;;
31974;SDS011;18500;43.618;1.474;2023-04-24T15:11:47;1479.47;;;999.90;;
31974;SDS011;18500;43.618;1.474;2023-04-24T15:14:13;1237.25;;;999.90;;
31974;SDS011;18500;43.618;1.474;2023-04-24T15:16:39;829.85;;;756.97;;
31974;SDS011;18500;43.618;1.474;2023-04-24T15:19:05;1009.85;;;913.22;;
31974;SDS011;18500;43.618;1.474;2023-04-24T15:21:31;1185.18;;;999.90;;
31974;SDS011;18500;43.618;1.474;2023-04-24T15:23:57;1129.45;;;999.90;;
31974;SDS011;18500;43.618;1.474;2023-04-24T15:26:23;922.53;;;841.05;;
31974;SDS011;18500;43.618;1.474;2023-04-24T15:28:50;1038.25;;;938.72;;
31974;SDS011;18500;43.618;1.474;2023-04-24T15:31:16;1118.57;;;995.22;;
31974;SDS011;18500;43.618;1.474;2023-04-24T15:33:43;1058.72;;;956.00;;
31974;SDS011;18500;43.618;1.474;2023-04-24T15:36:09;1327.60;;;999.90;;
31974;SDS011;18500;43.618;1.474;2023-04-24T15:38:35;1386.65;;;999.90;;
31974;SDS011;18500;43.618;1.474;2023-04-24T15:41:01;1444.63;;;999.90;;
31974;SDS011;18500;43.618;1.474;2023-04-24T15:43:26;1279.90;;;999.90;;
31974;SDS011;18500;43.618;1.474;2023-04-24T15:45:55;1084.82;;;975.90;;
31974;SDS011;18500;43.618;1.474;2023-04-24T15:48:21;1485.00;;;999.90;;
31974;SDS011;18500;43.618;1.474;2023-04-24T15:50:47;1554.35;;;999.90;;
31974;SDS011;18500;43.618;1.474;2023-04-24T15:53:13;1254.43;;;999.90;;
31974;SDS011;18500;43.618;1.474;2023-04-24T15:55:45;1564.53;;;999.90;;
31974;SDS011;18500;43.618;1.474;2023-04-24T16:00:44;1447.78;;;999.90;;
31974;SDS011;18500;43.618;1.474;2023-04-24T16:03:10;1360.22;;;999.90;;
31974;SDS011;18500;43.618;1.474;2023-04-24T16:05:36;820.10;;;746.35;;
31974;SDS011;18500;43.618;1.474;2023-04-24T16:08:01;974.80;;;883.95;;
31974;SDS011;18500;43.618;1.474;2023-04-24T16:10:27;910.90;;;824.63;;
31974;SDS011;18500;43.618;1.474;2023-04-24T16:12:53;995.97;;;902.42;;
31974;SDS011;18500;43.618;1.474;2023-04-24T16:15:19;633.20;;;584.30;;
31974;SDS011;18500;43.618;1.474;2023-04-24T16:17:45;548.83;;;509.33;;
31974;SDS011;18500;43.618;1.474;2023-04-24T16:20:12;769.45;;;704.58;;
31974;SDS011;18500;43.618;1.474;2023-04-24T16:22:38;894.78;;;816.35;;
31974;SDS011;18500;43.618;1.474;2023-04-24T16:25:07;639.25;;;590.28;;
31974;SDS011;18500;43.618;1.474;2023-04-24T16:27:34;693.92;;;642.80;;
31974;SDS011;18500;43.618;1.474;2023-04-24T16:30:00;594.35;;;554.78;;
31974;SDS011;18500;43.618;1.474;2023-04-24T16:32:26;748.55;;;687.08;;
31974;SDS011;18500;43.618;1.474;2023-04-24T16:34:52;1013.17;;;917.78;;
31974;SDS011;18500;43.618;1.474;2023-04-24T16:37:18;971.75;;;882.28;;
31974;SDS011;18500;43.618;1.474;2023-04-24T16:39:44;954.15;;;861.85;;
31974;SDS011;18500;43.618;1.474;2023-04-24T16:42:10;897.60;;;818.97;;
31974;SDS011;18500;43.618;1.474;2023-04-24T16:44:42;831.03;;;766.22;;
31974;SDS011;18500;43.618;1.474;2023-04-24T16:47:09;576.20;;;536.17;;
31974;SDS011;18500;43.618;1.474;2023-04-24T16:49:41;814.38;;;744.65;;
31974;SDS011;18500;43.618;1.474;2023-04-24T16:52:07;936.13;;;860.17;;
31974;SDS011;18500;43.618;1.474;2023-04-24T16:54:34;777.28;;;709.88;;
31974;SDS011;18500;43.618;1.474;2023-04-24T16:57:00;790.85;;;724.90;;
31974;SDS011;18500;43.618;1.474;2023-04-24T16:59:27;632.17;;;586.97;;
31974;SDS011;18500;43.618;1.474;2023-04-24T17:01:53;656.30;;;607.58;;
31974;SDS011;18500;43.618;1.474;2023-04-24T17:04:19;892.40;;;810.40;;
31974;SDS011;18500;43.618;1.474;2023-04-24T17:06:45;757.63;;;697.97;;
31974;SDS011;18500;43.618;1.474;2023-04-24T17:09:10;906.05;;;833.75;;
31974;SDS011;18500;43.618;1.474;2023-04-24T17:11:39;795.78;;;732.80;;
31974;SDS011;18500;43.618;1.474;2023-04-24T17:14:06;919.00;;;838.55;;
31974;SDS011;18500;43.618;1.474;2023-04-24T17:16:32;1004.08;;;912.28;;
31974;SDS011;18500;43.618;1.474;2023-04-24T17:18:58;1085.38;;;973.03;;
31974;SDS011;18500;43.618;1.474;2023-04-24T17:21:24;964.53;;;875.90;;
31974;SDS011;18500;43.618;1.474;2023-04-24T17:23:50;1099.40;;;973.50;;
31974;SDS011;18500;43.618;1.474;2023-04-24T17:26:16;939.28;;;847.53;;
31974;SDS011;18500;43.618;1.474;2023-04-24T17:28:42;789.97;;;724.15;;
31974;SDS011;18500;43.618;1.474;2023-04-24T17:31:07;959.75;;;872.05;;
31974;SDS011;18500;43.618;1.474;2023-04-24T17:33:33;1014.50;;;918.55;;
31974;SDS011;18500;43.618;1.474;2023-04-24T17:35:59;1012.95;;;918.60;;
31974;SDS011;18500;43.618;1.474;2023-04-24T17:38:28;950.40;;;864.75;;
31974;SDS011;18500;43.618;1.474;2023-04-24T17:40:54;697.15;;;642.97;;
31974;SDS011;18500;43.618;1.474;2023-04-24T17:43:20;821.67;;;751.72;;
31974;SDS011;18500;43.618;1.474;2023-04-24T17:45:48;930.85;;;845.40;;
31974;SDS011;18500;43.618;1.474;2023-04-24T17:48:15;920.80;;;840.25;;
31974;SDS011;18500;43.618;1.474;2023-04-24T17:50:42;952.03;;;863.25;;
31974;SDS011;18500;43.618;1.474;2023-04-24T17:53:08;993.38;;;902.90;;
31974;SDS011;18500;43.618;1.474;2023-04-24T17:55:37;1127.60;;;978.03;;
31974;SDS011;18500;43.618;1.474;2023-04-24T17:58:04;1118.72;;;968.72;;
31974;SDS011;18500;43.618;1.474;2023-04-24T18:00:30;1146.38;;;997.85;;
31974;SDS011;18500;43.618;1.474;2023-04-24T18:02:57;956.40;;;859.45;;
31974;SDS011;18500;43.618;1.474;2023-04-24T18:05:29;807.67;;;738.88;;
31974;SDS011;18500;43.618;1.474;2023-04-24T18:07:56;863.35;;;791.58;;
31974;SDS011;18500;43.618;1.474;2023-04-24T18:10:22;814.78;;;750.33;;
31974;SDS011;18500;43.618;1.474;2023-04-24T18:12:49;833.15;;;759.30;;
31974;SDS011;18500;43.618;1.474;2023-04-24T18:15:16;819.20;;;748.65;;
31974;SDS011;18500;43.618;1.474;2023-04-24T18:17:42;998.20;;;898.15;;
31974;SDS011;18500;43.618;1.474;2023-04-24T18:20:08;833.10;;;753.80;;
31974;SDS011;18500;43.618;1.474;2023-04-24T18:22:35;1046.38;;;937.22;;
31974;SDS011;18500;43.618;1.474;2023-04-24T18:25:01;769.75;;;706.95;;
31974;SDS011;18500;43.618;1.474;2023-04-24T18:27:26;763.35;;;701.10;;
31974;SDS011;18500;43.618;1.474;2023-04-24T18:29:55;788.38;;;722.17;;
31974;SDS011;18500;43.618;1.474;2023-04-24T18:32:21;931.40;;;836.60;;
31974;SDS011;18500;43.618;1.474;2023-04-24T18:34:48;920.70;;;826.60;;
31974;SDS011;18500;43.618;1.474;2023-04-24T18:37:14;987.83;;;887.90;;
31974;SDS011;18500;43.618;1.474;2023-04-24T18:39:40;798.40;;;725.40;;
31974;SDS011;18500;43.618;1.474;2023-04-24T18:42:06;847.38;;;767.72;;
31974;SDS011;18500;43.618;1.474;2023-04-24T18:44:31;850.35;;;773.63;;
31974;SDS011;18500;43.618;1.474;2023-04-24T18:46:57;843.42;;;764.63;;
31974;SDS011;18500;43.618;1.474;2023-04-24T18:49:23;872.35;;;793.55;;
31974;SDS011;18500;43.618;1.474;2023-04-24T18:51:49;974.53;;;875.63;;
31974;SDS011;18500;43.618;1.474;2023-04-24T18:54:16;791.08;;;720.38;;
31974;SDS011;18500;43.618;1.474;2023-04-24T18:56:42;756.97;;;691.58;;
31974;SDS011;18500;43.618;1.474;2023-04-24T18:59:07;945.42;;;855.88;;
31974;SDS011;18500;43.618;1.474;2023-04-24T19:01:33;747.28;;;683.05;;
31974;SDS011;18500;43.618;1.474;2023-04-24T19:03:59;870.70;;;783.85;;
31974;SDS011;18500;43.618;1.474;2023-04-24T19:06:25;726.95;;;668.17;;
31974;SDS011;18500;43.618;1.474;2023-04-24T19:08:51;803.97;;;740.80;;
31974;SDS011;18500;43.618;1.474;2023-04-24T19:11:16;967.17;;;874.13;;
31974;SDS011;18500;43.618;1.474;2023-04-24T19:13:42;931.45;;;847.85;;
31974;SDS011;18500;43.618;1.474;2023-04-24T19:16:08;853.67;;;781.42;;
31974;SDS011;18500;43.618;1.474;2023-04-24T19:18:33;927.28;;;846.63;;
31974;SDS011;18500;43.618;1.474;2023-04-24T19:20:59;884.95;;;802.55;;
31974;SDS011;18500;43.618;1.474;2023-04-24T19:23:25;1014.92;;;920.22;;
31974;SDS011;18500;43.618;1.474;2023-04-24T19:25:51;973.40;;;885.28;;
31974;SDS011;18500;43.618;1.474;2023-04-24T19:28:17;1050.28;;;954.97;;
31974;SDS011;18500;43.618;1.474;2023-04-24T19:30:44;886.03;;;812.63;;
31974;SDS011;18500;43.618;1.474;2023-04-24T19:33:10;939.72;;;860.95;;
31974;SDS011;18500;43.618;1.474;2023-04-24T19:35:35;1027.32;;;930.55;;
31974;SDS011;18500;43.618;1.474;2023-04-24T19:38:03;1048.90;;;951.92;;
31974;SDS011;18500;43.618;1.474;2023-04-24T19:40:29;1028.22;;;933.10;;
31974;SDS011;18500;43.618;1.474;2023-04-24T19:42:55;967.30;;;881.38;;
31974;SDS011;18500;43.618;1.474;2023-04-24T19:45:20;1031.63;;;937.10;;
31974;SDS011;18500;43.618;1.474;2023-04-24T19:47:46;960.05;;;880.47;;
31974;SDS011;18500;43.618;1.474;2023-04-24T19:50:12;776.75;;;715.97;;
31974;SDS011;18500;43.618;1.474;2023-04-24T19:52:39;797.13;;;737.10;;
31974;SDS011;18500;43.618;1.474;2023-04-24T19:55:05;734.28;;;680.20;;
31974;SDS011;18500;43.618;1.474;2023-04-24T19:57:32;865.55;;;792.17;;
31974;SDS011;18500;43.618;1.474;2023-04-24T19:59:58;910.00;;;835.03;;
31974;SDS011;18500;43.618;1.474;2023-04-24T20:02:23;757.60;;;698.03;;
31974;SDS011;18500;43.618;1.474;2023-04-24T20:04:49;772.17;;;711.03;;
31974;SDS011;18500;43.618;1.474;2023-04-24T20:07:15;728.35;;;671.03;;
31974;SDS011;18500;43.618;1.474;2023-04-24T20:09:40;610.25;;;565.03;;
31974;SDS011;18500;43.618;1.474;2023-04-24T20:12:06;505.77;;;469.67;;
31974;SDS011;18500;43.618;1.474;2023-04-24T20:14:32;424.15;;;395.63;;
31974;SDS011;18500;43.618;1.474;2023-04-24T20:16:57;645.10;;;597.17;;
31974;SDS011;18500;43.618;1.474;2023-04-24T20:19:23;487.75;;;455.98;;
31974;SDS011;18500;43.618;1.474;2023-04-24T20:21:49;568.28;;;527.60;;
31974;SDS011;18500;43.618;1.474;2023-04-24T20:24:15;349.92;;;327.13;;
31974;SDS011;18500;43.618;1.474;2023-04-24T20:26:40;386.42;;;360.55;;
31974;SDS011;18500;43.618;1.474;2023-04-24T20:29:06;415.02;;;388.98;;
31974;SDS011;18500;43.618;1.474;2023-04-24T20:31:32;428.92;;;401.58;;
31974;SDS011;18500;43.618;1.474;2023-04-24T20:33:59;395.95;;;372.08;;
31974;SDS011;18500;43.618;1.474;2023-04-24T20:36:24;392.98;;;368.00;;
31974;SDS011;18500;43.618;1.474;2023-04-24T20:38:51;382.45;;;358.85;;
31974;SDS011;18500;43.618;1.474;2023-04-24T20:41:17;367.98;;;345.00;;
31974;SDS011;18500;43.618;1.474;2023-04-24T20:43:43;528.28;;;493.27;;
31974;SDS011;18500;43.618;1.474;2023-04-24T20:46:09;501.17;;;469.45;;
